Julian Carroll Airport Jackson US
ICAO: KJKL
IATA: JKL
Category: Medium
Scheduled Services: No

Elevation: 1381 ft
TransAlt. 18000 ft.

Airport Communications:
ASOS:118.375
INDIANAPOLIS CNTR:126.57
CTAF/UNICOM:122.8

KJKL Zoom In..

If Map Doesn't Load, Click Here

Runways:

(A) RW 01 length 4400 ft width 75 ft
---- / hdg 12

(B) RW 19 length 4400 ft width 75 ft
---- / hdg 192

Location; KJKL
Day. 24 / Time. 05.53 Zulu
* Altimeter: 30.13
* Temperature: 18° c. 64.4°f.
* Wind from: 000° Speed 00 kn.
Dewpoint: 17° c.
Visibility: 1/2 Statute Miles.
Conditions: Fog.

KJKL 240553Z AUTO 00000KT 1/2SM FG 18/17 A3013 RMK AO2 SLP192 60000 T01780172 10183 20178 58000 $


Wind - Calm.

 
 
jpsmedia.com for Web Design worldairports.se 2018   terms of use